DAL1441 KTRI-KATL
Flight info
| Callsign | DAL1441 |
|---|---|
| Flight time | 0h 38m |
| Altitude | 24000 |
| Route | PUPDG ONDRE1 |
| Aircraft | A320/M-VGDW/C |
Departure
| Time | 2026-05-08 13:03 |
|---|---|
| Airport | Tri-Cities Regional TN/VA Airport (KTRI) |
Arrival
| Time | 2026-05-08 13:41 |
|---|---|
| Airport | Hartsfield Jackson Atlanta International Airport (KATL) |
| Time | Latitude | Longitude | Altitude | Speed | Heading |
|---|---|---|---|---|---|
| 2026-05-08 12:55 | 36.48004 | -82.40652 | 1517 ft | 0 kts | 8° |
| 2026-05-08 12:58 | 36.47999 | -82.40653 | 1517 ft | 4 kts | 8° |
| 2026-05-08 12:58 | 36.47972 | -82.40664 | 1509 ft | 4 kts | 54° |
| 2026-05-08 12:58 | 36.47968 | -82.40671 | 1521 ft | 0 kts | 58° |
| 2026-05-08 13:00 | 36.47977 | -82.40653 | 1517 ft | 8 kts | 58° |
| 2026-05-08 13:00 | 36.48043 | -82.40550 | 1514 ft | 21 kts | 47° |
| 2026-05-08 13:01 | 36.48169 | -82.40403 | 1516 ft | 24 kts | 43° |
| 2026-05-08 13:01 | 36.48231 | -82.40256 | 1517 ft | 18 kts | 84° |
| 2026-05-08 13:01 | 36.48193 | -82.40148 | 1517 ft | 13 kts | 133° |
| 2026-05-08 13:01 | 36.48134 | -82.40099 | 1516 ft | 9 kts | 192° |
| 2026-05-08 13:02 | 36.48103 | -82.40128 | 1516 ft | 0 kts | 225° |
| 2026-05-08 13:02 | 36.48033 | -82.40211 | 1515 ft | 49 kts | 222° |
| 2026-05-08 13:02 | 36.47597 | -82.40700 | 1517 ft | 117 kts | 223° |
| 2026-05-08 13:02 | 36.46862 | -82.41537 | 1550 ft | 165 kts | 222° |
| 2026-05-08 13:03 | 36.45981 | -82.42553 | 2009 ft | 179 kts | 221° |
| 2026-05-08 13:03 | 36.45019 | -82.43602 | 2617 ft | 189 kts | 220° |
| 2026-05-08 13:03 | 36.43990 | -82.44667 | 3236 ft | 195 kts | 218° |
| 2026-05-08 13:03 | 36.42894 | -82.45760 | 3733 ft | 209 kts | 218° |
| 2026-05-08 13:04 | 36.41717 | -82.46911 | 4066 ft | 228 kts | 218° |
| 2026-05-08 13:04 | 36.40378 | -82.48175 | 4395 ft | 253 kts | 217° |
| 2026-05-08 13:04 | 36.38917 | -82.49533 | 4977 ft | 269 kts | 217° |
| 2026-05-08 13:04 | 36.37398 | -82.50938 | 5734 ft | 275 kts | 217° |
| 2026-05-08 13:05 | 36.35846 | -82.52370 | 6582 ft | 280 kts | 217° |
| 2026-05-08 13:05 | 36.34272 | -82.53825 | 7414 ft | 283 kts | 218° |
| 2026-05-08 13:05 | 36.32694 | -82.55286 | 8341 ft | 283 kts | 219° |
| 2026-05-08 13:05 | 36.31119 | -82.56748 | 9297 ft | 282 kts | 220° |
| 2026-05-08 13:06 | 36.29550 | -82.58206 | 10222 ft | 283 kts | 221° |
| 2026-05-08 13:06 | 36.27913 | -82.59734 | 10506 ft | 306 kts | 221° |
| 2026-05-08 13:06 | 36.26152 | -82.61384 | 10710 ft | 328 kts | 221° |
| 2026-05-08 13:06 | 36.24324 | -82.63088 | 11240 ft | 337 kts | 221° |
| 2026-05-08 13:07 | 36.22437 | -82.64833 | 11932 ft | 341 kts | 221° |
| 2026-05-08 13:07 | 36.20532 | -82.66590 | 12658 ft | 344 kts | 222° |
| 2026-05-08 13:07 | 36.18600 | -82.68370 | 13368 ft | 348 kts | 222° |
| 2026-05-08 13:07 | 36.16650 | -82.70164 | 14057 ft | 351 kts | 223° |
| 2026-05-08 13:08 | 36.14680 | -82.71980 | 14691 ft | 354 kts | 223° |
| 2026-05-08 13:08 | 36.12699 | -82.73805 | 15342 ft | 356 kts | 223° |
| 2026-05-08 13:08 | 36.10711 | -82.75638 | 15972 ft | 358 kts | 223° |
| 2026-05-08 13:08 | 36.08701 | -82.77490 | 16644 ft | 360 kts | 223° |
| 2026-05-08 13:09 | 36.06691 | -82.79345 | 17265 ft | 362 kts | 223° |
| 2026-05-08 13:09 | 36.04670 | -82.81209 | 17911 ft | 364 kts | 223° |
| 2026-05-08 13:09 | 36.02636 | -82.83085 | 18509 ft | 366 kts | 223° |
| 2026-05-08 13:09 | 36.00585 | -82.84976 | 19053 ft | 369 kts | 224° |
| 2026-05-08 13:10 | 35.98528 | -82.86872 | 19549 ft | 370 kts | 224° |
| 2026-05-08 13:10 | 35.96454 | -82.88777 | 20179 ft | 372 kts | 224° |
| 2026-05-08 13:10 | 35.94373 | -82.90682 | 20747 ft | 373 kts | 224° |
| 2026-05-08 13:10 | 35.92276 | -82.92599 | 21292 ft | 375 kts | 224° |
| 2026-05-08 13:11 | 35.90210 | -82.94492 | 21840 ft | 376 kts | 224° |
| 2026-05-08 13:11 | 35.88115 | -82.96418 | 22390 ft | 377 kts | 225° |
| 2026-05-08 13:11 | 35.85999 | -82.98359 | 22931 ft | 379 kts | 225° |
| 2026-05-08 13:11 | 35.83884 | -83.00298 | 23456 ft | 380 kts | 225° |
| 2026-05-08 13:12 | 35.81754 | -83.02245 | 23886 ft | 382 kts | 225° |
| 2026-05-08 13:12 | 35.79607 | -83.04203 | 24056 ft | 388 kts | 225° |
| 2026-05-08 13:12 | 35.77360 | -83.06132 | 24101 ft | 404 kts | 219° |
| 2026-05-08 13:12 | 35.74796 | -83.07725 | 24104 ft | 420 kts | 214° |
| 2026-05-08 13:13 | 35.72121 | -83.09281 | 24103 ft | 429 kts | 214° |
| 2026-05-08 13:13 | 35.69406 | -83.10856 | 24103 ft | 433 kts | 214° |
| 2026-05-08 13:13 | 35.66673 | -83.12438 | 24102 ft | 434 kts | 214° |
| 2026-05-08 13:13 | 35.63943 | -83.14011 | 24103 ft | 434 kts | 214° |
| 2026-05-08 13:14 | 35.62136 | -83.15051 | 24103 ft | 434 kts | 214° |
| 2026-05-08 13:14 | 35.58508 | -83.17146 | 24103 ft | 435 kts | 214° |
| 2026-05-08 13:14 | 35.55772 | -83.18729 | 24074 ft | 435 kts | 214° |
| 2026-05-08 13:14 | 35.53035 | -83.20312 | 24102 ft | 435 kts | 214° |
| 2026-05-08 13:15 | 35.50294 | -83.21899 | 24105 ft | 435 kts | 214° |
| 2026-05-08 13:15 | 35.47554 | -83.23484 | 24105 ft | 436 kts | 214° |
| 2026-05-08 13:15 | 35.45700 | -83.24554 | 24102 ft | 435 kts | 214° |
| 2026-05-08 13:15 | 35.42081 | -83.26643 | 24095 ft | 434 kts | 214° |
| 2026-05-08 13:16 | 35.40267 | -83.27683 | 24090 ft | 435 kts | 214° |
| 2026-05-08 13:16 | 35.37516 | -83.29246 | 24091 ft | 436 kts | 213° |
| 2026-05-08 13:16 | 35.34761 | -83.30800 | 24092 ft | 436 kts | 213° |
| 2026-05-08 13:16 | 35.32003 | -83.32348 | 24084 ft | 435 kts | 213° |
| 2026-05-08 13:17 | 35.29256 | -83.33886 | 24083 ft | 429 kts | 214° |
| 2026-05-08 13:17 | 35.26608 | -83.35350 | 24098 ft | 408 kts | 214° |
| 2026-05-08 13:17 | 35.24045 | -83.36773 | 24099 ft | 402 kts | 214° |
| 2026-05-08 13:17 | 35.21514 | -83.38198 | 24100 ft | 400 kts | 215° |
| 2026-05-08 13:18 | 35.18995 | -83.39627 | 24101 ft | 399 kts | 215° |
| 2026-05-08 13:18 | 35.16476 | -83.41058 | 24100 ft | 399 kts | 215° |
| 2026-05-08 13:18 | 35.13953 | -83.42488 | 24101 ft | 399 kts | 215° |
| 2026-05-08 13:18 | 35.11430 | -83.43914 | 24099 ft | 399 kts | 214° |
| 2026-05-08 13:19 | 35.08907 | -83.45334 | 24103 ft | 399 kts | 214° |
| 2026-05-08 13:19 | 35.06384 | -83.46754 | 24061 ft | 398 kts | 215° |
| 2026-05-08 13:19 | 35.03914 | -83.48158 | 24082 ft | 396 kts | 216° |
| 2026-05-08 13:19 | 35.01437 | -83.49579 | 23883 ft | 391 kts | 216° |
| 2026-05-08 13:20 | 34.98987 | -83.50993 | 23656 ft | 388 kts | 216° |
| 2026-05-08 13:20 | 34.96552 | -83.52407 | 23388 ft | 387 kts | 216° |
| 2026-05-08 13:20 | 34.94130 | -83.53810 | 23122 ft | 385 kts | 216° |
| 2026-05-08 13:20 | 34.91709 | -83.55210 | 22859 ft | 385 kts | 215° |
| 2026-05-08 13:21 | 34.89289 | -83.56605 | 22593 ft | 385 kts | 215° |
| 2026-05-08 13:21 | 34.86869 | -83.57992 | 22332 ft | 384 kts | 215° |
| 2026-05-08 13:21 | 34.84453 | -83.59377 | 22072 ft | 383 kts | 215° |
| 2026-05-08 13:21 | 34.82048 | -83.60756 | 21794 ft | 382 kts | 214° |
| 2026-05-08 13:22 | 34.79649 | -83.62135 | 21544 ft | 380 kts | 214° |
| 2026-05-08 13:22 | 34.77267 | -83.63507 | 21295 ft | 379 kts | 214° |
| 2026-05-08 13:22 | 34.74881 | -83.64871 | 21050 ft | 378 kts | 214° |
| 2026-05-08 13:22 | 34.72502 | -83.66227 | 20805 ft | 378 kts | 214° |
| 2026-05-08 13:23 | 34.70124 | -83.67582 | 20563 ft | 377 kts | 214° |
| 2026-05-08 13:23 | 34.67753 | -83.68934 | 20322 ft | 376 kts | 214° |
| 2026-05-08 13:23 | 34.65386 | -83.70285 | 20085 ft | 375 kts | 214° |
| 2026-05-08 13:23 | 34.63024 | -83.71634 | 19846 ft | 375 kts | 214° |
| 2026-05-08 13:24 | 34.60670 | -83.72980 | 19613 ft | 374 kts | 214° |
| 2026-05-08 13:24 | 34.58317 | -83.74325 | 19378 ft | 373 kts | 213° |
| 2026-05-08 13:24 | 34.55969 | -83.75667 | 19117 ft | 370 kts | 213° |
| 2026-05-08 13:24 | 34.53688 | -83.76967 | 18724 ft | 365 kts | 213° |
| 2026-05-08 13:25 | 34.51395 | -83.78274 | 18238 ft | 363 kts | 213° |
| 2026-05-08 13:25 | 34.49123 | -83.79569 | 17760 ft | 359 kts | 213° |
| 2026-05-08 13:25 | 34.46875 | -83.80850 | 17294 ft | 355 kts | 213° |
| 2026-05-08 13:25 | 34.44650 | -83.82118 | 16818 ft | 352 kts | 213° |
| 2026-05-08 13:26 | 34.42430 | -83.83385 | 16264 ft | 352 kts | 213° |
| 2026-05-08 13:26 | 34.40219 | -83.84647 | 15802 ft | 350 kts | 212° |
| 2026-05-08 13:26 | 34.38019 | -83.85899 | 15335 ft | 349 kts | 212° |
| 2026-05-08 13:26 | 34.35821 | -83.87151 | 14868 ft | 347 kts | 212° |
| 2026-05-08 13:27 | 34.33667 | -83.88378 | 14404 ft | 346 kts | 212° |
| 2026-05-08 13:27 | 34.31504 | -83.89637 | 13912 ft | 344 kts | 213° |
| 2026-05-08 13:27 | 34.29401 | -83.90935 | 13669 ft | 334 kts | 214° |
| 2026-05-08 13:27 | 34.27383 | -83.92217 | 13538 ft | 321 kts | 215° |
| 2026-05-08 13:28 | 34.25442 | -83.93465 | 13403 ft | 310 kts | 215° |
| 2026-05-08 13:28 | 34.23566 | -83.94669 | 13258 ft | 301 kts | 215° |
| 2026-05-08 13:28 | 34.21737 | -83.95844 | 13069 ft | 295 kts | 215° |
| 2026-05-08 13:28 | 34.19936 | -83.96998 | 13016 ft | 293 kts | 215° |
| 2026-05-08 13:29 | 34.18130 | -83.98149 | 13015 ft | 293 kts | 215° |
| 2026-05-08 13:29 | 34.16330 | -83.99287 | 12778 ft | 291 kts | 215° |
| 2026-05-08 13:29 | 34.14542 | -84.00416 | 12402 ft | 290 kts | 215° |
| 2026-05-08 13:29 | 34.12752 | -84.01545 | 12042 ft | 289 kts | 214° |
| 2026-05-08 13:30 | 34.10973 | -84.02669 | 11692 ft | 288 kts | 214° |
| 2026-05-08 13:30 | 34.09206 | -84.03786 | 11342 ft | 287 kts | 214° |
| 2026-05-08 13:30 | 34.07443 | -84.04901 | 10974 ft | 284 kts | 214° |
| 2026-05-08 13:30 | 34.05694 | -84.06001 | 10345 ft | 282 kts | 214° |
| 2026-05-08 13:31 | 34.03955 | -84.07092 | 9730 ft | 283 kts | 213° |
| 2026-05-08 13:31 | 34.02210 | -84.08188 | 9360 ft | 282 kts | 212° |
| 2026-05-08 13:31 | 34.00349 | -84.08981 | 9048 ft | 286 kts | 197° |
| 2026-05-08 13:31 | 33.98405 | -84.09169 | 9005 ft | 285 kts | 182° |
| 2026-05-08 13:32 | 33.96399 | -84.08832 | 9013 ft | 288 kts | 175° |
| 2026-05-08 13:32 | 33.94446 | -84.08449 | 9013 ft | 286 kts | 181° |
| 2026-05-08 13:32 | 33.92516 | -84.08637 | 8765 ft | 275 kts | 197° |
| 2026-05-08 13:32 | 33.90639 | -84.09133 | 8161 ft | 271 kts | 198° |
| 2026-05-08 13:33 | 33.88835 | -84.09667 | 7553 ft | 269 kts | 199° |
| 2026-05-08 13:33 | 33.87032 | -84.10231 | 6954 ft | 267 kts | 199° |
| 2026-05-08 13:33 | 33.85248 | -84.10818 | 6345 ft | 264 kts | 199° |
| 2026-05-08 13:33 | 33.83488 | -84.11427 | 5709 ft | 262 kts | 199° |
| 2026-05-08 13:34 | 33.81738 | -84.12073 | 5352 ft | 260 kts | 199° |
| 2026-05-08 13:34 | 33.80049 | -84.12713 | 5215 ft | 250 kts | 199° |
| 2026-05-08 13:34 | 33.78427 | -84.13318 | 5093 ft | 237 kts | 199° |
| 2026-05-08 13:34 | 33.76881 | -84.13895 | 4999 ft | 228 kts | 199° |
| 2026-05-08 13:35 | 33.75390 | -84.14458 | 4994 ft | 220 kts | 199° |
| 2026-05-08 13:35 | 33.73981 | -84.14989 | 5015 ft | 204 kts | 199° |
| 2026-05-08 13:35 | 33.72659 | -84.15481 | 5001 ft | 195 kts | 199° |
| 2026-05-08 13:35 | 33.71386 | -84.15954 | 4983 ft | 189 kts | 199° |
| 2026-05-08 13:36 | 33.70218 | -84.16606 | 4820 ft | 184 kts | 215° |
| 2026-05-08 13:36 | 33.69171 | -84.17487 | 4545 ft | 183 kts | 218° |
| 2026-05-08 13:36 | 33.68162 | -84.18399 | 4217 ft | 184 kts | 218° |
| 2026-05-08 13:36 | 33.67158 | -84.19357 | 3904 ft | 185 kts | 224° |
| 2026-05-08 13:37 | 33.66279 | -84.20516 | 3597 ft | 188 kts | 232° |
| 2026-05-08 13:37 | 33.65494 | -84.21782 | 3254 ft | 193 kts | 236° |
| 2026-05-08 13:37 | 33.64991 | -84.23273 | 3029 ft | 193 kts | 261° |
| 2026-05-08 13:37 | 33.64940 | -84.24887 | 2999 ft | 195 kts | 270° |
| 2026-05-08 13:38 | 33.64944 | -84.26516 | 3005 ft | 196 kts | 270° |
| 2026-05-08 13:38 | 33.64946 | -84.28145 | 2989 ft | 195 kts | 270° |
| 2026-05-08 13:38 | 33.64948 | -84.29740 | 2825 ft | 187 kts | 271° |
| 2026-05-08 13:38 | 33.64949 | -84.31259 | 2609 ft | 175 kts | 271° |
| 2026-05-08 13:39 | 33.64950 | -84.32661 | 2415 ft | 163 kts | 271° |
| 2026-05-08 13:39 | 33.64951 | -84.33989 | 2193 ft | 156 kts | 271° |
| 2026-05-08 13:39 | 33.64952 | -84.35282 | 1984 ft | 154 kts | 271° |
| 2026-05-08 13:39 | 33.64952 | -84.36538 | 1763 ft | 151 kts | 271° |
| 2026-05-08 13:40 | 33.64946 | -84.37785 | 1567 ft | 147 kts | 271° |
| 2026-05-08 13:40 | 33.64955 | -84.39012 | 1349 ft | 143 kts | 272° |
| 2026-05-08 13:40 | 33.64953 | -84.40196 | 1174 ft | 146 kts | 271° |
| 2026-05-08 13:40 | 33.64955 | -84.41409 | 1016 ft | 142 kts | 272° |
| 2026-05-08 13:41 | 33.64956 | -84.42433 | 1007 ft | 97 kts | 270° |
| 2026-05-08 13:41 | 33.64951 | -84.43019 | 1006 ft | 48 kts | 265° |
| 2026-05-08 13:41 | 33.64877 | -84.43297 | 1006 ft | 22 kts | 229° |
| 2026-05-08 13:41 | 33.64790 | -84.43223 | 1007 ft | 19 kts | 91° |
| 2026-05-08 13:42 | 33.64713 | -84.43133 | 1007 ft | 17 kts | 179° |
| 2026-05-08 13:42 | 33.64635 | -84.43192 | 1008 ft | 13 kts | 241° |
| 2026-05-08 13:42 | 33.64593 | -84.43276 | 1008 ft | 11 kts | 239° |
| 2026-05-08 13:42 | 33.64536 | -84.43255 | 1007 ft | 15 kts | 130° |
| 2026-05-08 13:43 | 33.64524 | -84.43106 | 1007 ft | 20 kts | 139° |
| 2026-05-08 13:43 | 33.64377 | -84.43126 | 1006 ft | 22 kts | 184° |
| 2026-05-08 13:43 | 33.64271 | -84.43151 | 1006 ft | 12 kts | 237° |
| 2026-05-08 13:43 | 33.64268 | -84.43203 | 1006 ft | 0 kts | 270° |